Погода Рейесна 2 недели

Бени, Боливия

23 июля-05 августа
  • 23июля
    Сегодня
    +16°
    +33°
    Ясно и безоблачно
    ВремяПогодаТемператураВлажностьДавлениеВетер, м/сВероятность осадков
    02:00Ясно и безоблачно+21°C83 %736 мм2.8 м/с5 %
    05:00Ясно и безоблачно+19°C89 %737 мм2.3 м/с5 %
    08:00Ясно и безоблачно+20°C87 %738 мм0.8 м/с5 %
    11:00Ясно и безоблачно+30°C58 %739 мм2.3 м/с4 %
    14:00Ясно и безоблачно+32°C45 %737 мм1.9 м/с23 %
    17:00Ясно и безоблачно+32°C56 %735 мм0.9 м/с17 %
    20:00Ясно и безоблачно+26°C73 %735 мм2.1 м/с5 %
    23:00Ясно и безоблачно+22°C87 %736 мм1.6 м/с5 %
  • 24июля
    Среда
    +17°
    +35°
    Ясно и безоблачно
    ВремяПогодаТемператураВлажностьДавлениеВетер, м/сВероятность осадков
    02:00Ясно и безоблачно+21°C88 %735 мм0.9 м/с5 %
    05:00Ясно и безоблачно+18°C93 %735 мм0.9 м/с5 %
    08:00Ясно и безоблачно+19°C90 %737 мм0.3 м/с5 %
    11:00Ясно и безоблачно+31°C56 %738 мм1.6 м/с5 %
    14:00Ясно и безоблачно+33°C40 %736 мм3.8 м/с2 %
    17:00Ясно и безоблачно+34°C53 %734 мм2.3 м/с3 %
    20:00Ясно и безоблачно+28°C71 %735 мм1.5 м/с5 %
    23:00Ясно и безоблачно+24°C79 %736 мм1.1 м/с5 %
  • 25июля
    Четверг
    +19°
    +35°
    Ясно и безоблачно
    ВремяПогодаТемператураВлажностьДавлениеВетер, м/сВероятность осадков
    02:00Ясно и безоблачно+21°C84 %735 мм1.2 м/с5 %
    05:00Практически безоблачно+19°C89 %735 мм1.5 м/с5 %
    08:00Ясно и безоблачно+19°C87 %737 мм0.3 м/с5 %
    11:00Ясно и безоблачно+31°C55 %738 мм1.2 м/с5 %
    14:00Ясно и безоблачно+34°C42 %736 мм3.1 м/с3 %
    17:00Ясно и безоблачно+34°C57 %734 мм1.5 м/с3 %
    20:00Ясно и безоблачно+28°C67 %734 мм0.1 м/с5 %
    23:00Ясно и безоблачно+24°C87 %734 мм1.5 м/с5 %
  • 26июля
    Пятница
    +19°
    +35°
    Практически безоблачно
    ВремяПогодаТемператураВлажностьДавлениеВетер, м/сВероятность осадков
    02:00Ясно и безоблачно+21°C92 %734 мм1.1 м/с5 %
    05:00Ясно и безоблачно+19°C92 %733 мм1.1 м/с5 %
    08:00Ясно и безоблачно+20°C88 %735 мм0.2 м/с5 %
    11:00Ясно и безоблачно+31°C57 %736 мм1.8 м/с5 %
    14:00Практически безоблачно+34°C42 %733 мм4.0 м/с5 %
    17:00Ясно и безоблачно+34°C53 %732 мм1.7 м/с5 %
    20:00Ясно и безоблачно+28°C70 %733 мм1.5 м/с5 %
    23:00Ясно и безоблачно+25°C72 %734 мм1.2 м/с5 %
Мы используем cookies
Соглашаюсь